Time;durP1;ratioP1;P1;durP2;ratioP2;P2;SDS_P1;SDS_P2;PMS_P1;PMS_P2;Temp;Humidity;BMP_temperature;BMP_pressure;BME280_temperature;BME280_humidity;BME280_pressure;Samples;Min_cycle;Max_cycle;Signal;HPM_P1;HPM_P2
2022/04/18 00:02:04;;;;;;;6.97;5.63;;;5.80;91.00;;;;;;5114366;28;20419;-61
2022/04/18 00:04:30;;;;;;;8.13;6.20;;;5.70;90.90;;;;;;5113821;28;20423;-61
2022/04/18 00:06:55;;;;;;;5.13;4.33;;;5.70;90.90;;;;;;5114355;28;20390;-65
2022/04/18 00:09:21;;;;;;;4.63;4.23;;;5.80;91.00;;;;;;5113502;28;20248;-61
2022/04/18 00:11:47;;;;;;;9.17;8.10;;;5.70;90.90;;;;;;5113034;28;20575;-61
2022/04/18 00:14:12;;;;;;;9.00;6.70;;;5.70;90.90;;;;;;5114250;28;20199;-61
2022/04/18 00:16:38;;;;;;;6.10;5.10;;;5.70;90.90;;;;;;5114411;28;20561;-61
2022/04/18 00:19:04;;;;;;;5.77;4.13;;;5.60;90.90;;;;;;5113205;28;20444;-64
2022/04/18 00:21:31;;;;;;;4.87;4.27;;;5.60;90.90;;;;;;5114276;28;20187;-61
2022/04/18 00:23:56;;;;;;;7.47;5.13;;;5.60;90.90;;;;;;5114253;28;20161;-64
2022/04/18 00:26:22;;;;;;;4.07;3.77;;;5.60;90.90;;;;;;5114141;28;20451;-64
2022/04/18 00:28:48;;;;;;;7.93;4.97;;;5.60;90.90;;;;;;5113184;28;20871;-64
2022/04/18 00:31:14;;;;;;;6.07;4.83;;;5.60;90.90;;;;;;5113886;28;20858;-65
2022/04/18 00:33:39;;;;;;;25.03;11.40;;;5.70;90.90;;;;;;5113919;28;20399;-61
2022/04/18 00:36:05;;;;;;;16.20;8.10;;;5.60;90.90;;;;;;5113861;28;20256;-64
2022/04/18 00:38:31;;;;;;;5.57;5.00;;;5.70;90.90;;;;;;5113013;28;20169;-66
2022/04/18 00:40:57;;;;;;;5.17;4.13;;;5.70;90.90;;;;;;5113702;28;20204;-65
2022/04/18 00:43:40;;;;;;;4.67;4.23;;;5.70;90.90;;;;;;5113572;28;20184;-62
2022/04/18 00:46:06;;;;;;;5.90;4.50;;;5.80;91.00;;;;;;5113635;28;20952;-61
2022/04/18 00:48:32;;;;;;;7.33;4.80;;;5.70;91.90;;;;;;5112675;28;20428;-65
2022/04/18 00:50:58;;;;;;;5.00;4.50;;;5.70;93.30;;;;;;5113944;28;20394;-61
2022/04/18 00:53:23;;;;;;;5.90;4.23;;;5.70;94.40;;;;;;5113655;28;20204;-61
2022/04/18 00:55:49;;;;;;;5.47;4.30;;;5.60;95.10;;;;;;5113637;28;20450;-62
2022/04/18 00:58:15;;;;;;;6.60;4.47;;;5.60;95.90;;;;;;5113999;28;20161;-64
2022/04/18 01:00:40;;;;;;;6.50;3.97;;;5.50;96.00;;;;;;5112824;28;20609;-64
2022/04/18 01:03:06;;;;;;;6.73;4.60;;;5.50;96.30;;;;;;5113664;28;20185;-64
2022/04/18 01:05:32;;;;;;;6.03;5.40;;;5.40;96.40;;;;;;5113598;28;20592;-66
2022/04/18 01:07:59;;;;;;;12.17;4.47;;;5.40;96.70;;;;;;5113790;28;20171;-66
2022/04/18 01:10:24;;;;;;;6.30;3.90;;;5.40;98.10;;;;;;5112680;28;20768;-63
2022/04/18 01:12:50;;;;;;;4.80;4.30;;;5.30;98.90;;;;;;5113618;28;20497;-63
2022/04/18 01:15:16;;;;;;;7.40;5.10;;;5.30;99.10;;;;;;5113512;28;20204;-63
2022/04/18 01:17:41;;;;;;;5.53;4.70;;;5.20;99.60;;;;;;5117439;28;20218;-63
2022/04/18 01:20:07;;;;;;;3.17;2.93;;;5.20;99.90;;;;;;5116772;28;20169;-63
2022/04/18 01:22:35;;;;;;;8.53;4.17;;;5.20;99.90;;;;;;5117687;28;20185;-66
2022/04/18 01:30:30;;;;;;;5.57;4.50;;;5.10;99.90;;;;;;5116373;28;20473;-63
2022/04/18 01:32:55;;;;;;;5.30;4.80;;;5.00;99.90;;;;;;5117186;28;20462;-63
2022/04/18 01:35:21;;;;;;;5.17;4.67;;;5.00;99.90;;;;;;5117145;28;20199;-66
2022/04/18 01:37:46;;;;;;;5.07;4.17;;;5.00;99.90;;;;;;5117138;28;20810;-66
2022/04/18 01:40:12;;;;;;;7.53;4.90;;;4.90;99.90;;;;;;5116353;28;20163;-63
2022/04/18 01:42:38;;;;;;;12.07;7.37;;;4.90;99.90;;;;;;5117045;28;20243;-63
2022/04/18 01:45:04;;;;;;;18.00;9.60;;;4.90;99.90;;;;;;5117222;28;20182;-66
2022/04/18 01:47:30;;;;;;;17.83;8.67;;;4.90;99.90;;;;;;5117094;28;20527;-63
2022/04/18 01:49:56;;;;;;;11.13;7.30;;;4.90;99.90;;;;;;5115896;28;20409;-65
2022/04/18 01:52:21;;;;;;;13.33;7.17;;;4.90;99.90;;;;;;5117082;28;20280;-66
2022/04/18 01:54:47;;;;;;;16.33;7.97;;;4.80;99.90;;;;;;5116861;28;20684;-63
2022/04/18 01:57:12;;;;;;;9.10;6.30;;;4.80;99.90;;;;;;5117067;28;20519;-63
2022/04/18 01:59:42;;;;;;;8.07;5.00;;;4.80;99.90;;;;;;5115994;28;20218;-67
2022/04/18 02:02:08;;;;;;;5.83;5.23;;;4.70;99.90;;;;;;5116696;28;20183;-66
2022/04/18 02:04:33;;;;;;;8.80;4.40;;;4.70;99.90;;;;;;5116533;28;20422;-66
2022/04/18 02:06:59;;;;;;;6.17;4.57;;;4.60;99.90;;;;;;5116853;28;20636;-66
2022/04/18 02:09:24;;;;;;;5.50;3.93;;;4.60;99.90;;;;;;5115820;28;20165;-63
2022/04/18 02:11:50;;;;;;;5.77;4.47;;;4.60;99.90;;;;;;5116528;28;20266;-64
2022/04/18 02:14:15;;;;;;;5.27;4.40;;;4.50;99.90;;;;;;5116478;28;20670;-63
2022/04/18 02:16:41;;;;;;;6.27;4.03;;;4.40;99.90;;;;;;5116532;28;20200;-66
2022/04/18 02:19:07;;;;;;;5.33;4.70;;;4.30;99.90;;;;;;5115523;28;20161;-63
2022/04/18 02:21:32;;;;;;;4.73;4.33;;;4.30;99.90;;;;;;5116505;28;20190;-66
2022/04/18 02:23:58;;;;;;;4.87;4.37;;;4.30;99.90;;;;;;5116328;28;20615;-66
2022/04/18 02:26:24;;;;;;;5.77;3.80;;;4.20;99.90;;;;;;5115884;28;20167;-66
2022/04/18 02:28:49;;;;;;;4.50;4.10;;;4.10;99.90;;;;;;5115613;28;20266;-66
2022/04/18 02:31:15;;;;;;;4.70;4.27;;;4.10;99.90;;;;;;5116336;28;20206;-64
2022/04/18 02:33:41;;;;;;;4.30;4.00;;;4.00;99.90;;;;;;5116157;28;20167;-63
2022/04/18 02:36:06;;;;;;;7.10;4.40;;;4.00;99.90;;;;;;5115971;28;20201;-64
2022/04/18 02:38:32;;;;;;;4.23;3.83;;;3.90;99.90;;;;;;5115196;28;20178;-65
2022/04/18 02:40:57;;;;;;;6.20;4.03;;;3.90;99.90;;;;;;5116327;28;20179;-66
2022/04/18 02:43:23;;;;;;;4.73;4.20;;;3.90;99.90;;;;;;5115901;28;20274;-66
2022/04/18 02:45:49;;;;;;;5.47;4.63;;;3.90;99.90;;;;;;5116009;28;20165;-63
2022/04/18 02:48:14;;;;;;;5.27;4.80;;;3.90;99.90;;;;;;5115770;28;20252;-67
2022/04/18 02:50:40;;;;;;;4.60;4.20;;;3.80;99.90;;;;;;5113670;28;20169;-63
2022/04/18 02:53:06;;;;;;;4.23;4.00;;;3.80;99.90;;;;;;5115875;28;20659;-63
2022/04/18 02:55:32;;;;;;;5.63;4.23;;;3.70;99.90;;;;;;5115925;28;20255;-65
2022/04/18 02:57:57;;;;;;;5.13;4.67;;;3.70;99.90;;;;;;5114555;28;20493;-66
2022/04/18 03:00:23;;;;;;;5.00;3.50;;;3.70;99.90;;;;;;5114797;28;20165;-68
2022/04/18 03:02:48;;;;;;;7.20;4.70;;;3.70;99.90;;;;;;5115538;28;20183;-63
2022/04/18 03:05:14;;;;;;;5.27;4.13;;;3.50;99.90;;;;;;5115688;28;20184;-66
2022/04/18 03:07:40;;;;;;;5.27;3.70;;;3.50;99.90;;;;;;5115748;28;20190;-63
2022/04/18 03:10:06;;;;;;;4.40;4.00;;;3.40;99.90;;;;;;5114746;28;20168;-63
2022/04/18 03:12:32;;;;;;;4.83;4.40;;;3.40;99.90;;;;;;5115311;28;20191;-66
2022/04/18 03:14:58;;;;;;;4.40;4.10;;;3.40;99.90;;;;;;5114096;28;20523;-63
2022/04/18 03:17:23;;;;;;;7.70;4.67;;;3.40;99.90;;;;;;5115484;28;20176;-63
2022/04/18 03:19:49;;;;;;;4.10;3.63;;;3.30;99.90;;;;;;5114462;28;20396;-66
2022/04/18 03:22:15;;;;;;;6.20;4.17;;;3.30;99.90;;;;;;5115206;28;20503;-66
2022/04/18 03:24:40;;;;;;;4.97;3.90;;;3.30;99.90;;;;;;5115179;28;20234;-64
2022/04/18 03:27:06;;;;;;;4.70;4.30;;;3.30;99.90;;;;;;5115272;28;20210;-63
2022/04/18 03:29:32;;;;;;;5.40;4.57;;;3.20;99.90;;;;;;5114335;28;20173;-64
2022/04/18 03:31:58;;;;;;;5.87;4.73;;;3.20;99.90;;;;;;5114935;28;20223;-65
2022/04/18 03:34:24;;;;;;;6.30;4.67;;;3.20;99.90;;;;;;5114997;28;20208;-67
2022/04/18 03:42:31;;;;;;;18.83;5.13;;;3.10;99.90;;;;;;5096972;28;20854;-67
2022/04/18 03:44:59;;;;;;;5.37;4.63;;;3.10;99.90;;;;;;5114577;28;20783;-65
2022/04/18 03:47:25;;;;;;;7.10;4.90;;;3.10;99.90;;;;;;5114816;28;20410;-63
2022/04/18 03:49:51;;;;;;;7.67;5.67;;;3.00;99.90;;;;;;5113694;28;20408;-66
2022/04/18 03:52:17;;;;;;;4.60;4.20;;;3.00;99.90;;;;;;5114504;28;20498;-63
2022/04/18 03:54:43;;;;;;;5.50;4.27;;;2.90;99.90;;;;;;5114409;28;20586;-63
2022/04/18 03:57:09;;;;;;;7.17;4.63;;;2.90;99.90;;;;;;5114576;28;20169;-62
2022/04/18 03:59:35;;;;;;;9.70;4.83;;;2.90;99.90;;;;;;5113881;28;20207;-65
2022/04/18 04:02:01;;;;;;;5.27;3.83;;;2.90;99.90;;;;;;5114323;28;20976;-66
2022/04/18 04:04:27;;;;;;;4.93;4.50;;;2.80;99.90;;;;;;5113050;28;20185;-63
2022/04/18 04:06:53;;;;;;;5.37;4.60;;;2.80;99.90;;;;;;5114235;28;20422;-67
2022/04/18 04:09:18;;;;;;;11.80;4.50;;;2.80;99.90;;;;;;5113508;28;20403;-63
2022/04/18 04:11:44;;;;;;;4.83;4.17;;;2.80;99.90;;;;;;5114098;28;21091;-66
2022/04/18 04:14:10;;;;;;;5.10;4.60;;;2.80;99.90;;;;;;5112832;28;20179;-63
2022/04/18 04:16:37;;;;;;;3.70;3.40;;;2.70;99.90;;;;;;5114297;28;20282;-63
2022/04/18 04:19:03;;;;;;;9.87;4.73;;;2.70;99.90;;;;;;5113223;28;20169;-63
2022/04/18 04:21:29;;;;;;;4.07;3.80;;;2.70;99.90;;;;;;5113972;28;20490;-63
2022/04/18 04:23:54;;;;;;;6.00;4.23;;;2.70;99.90;;;;;;5113046;28;20165;-63
2022/04/18 04:26:20;;;;;;;4.87;4.47;;;2.70;99.90;;;;;;5112805;28;20192;-66
2022/04/18 04:28:46;;;;;;;4.57;4.23;;;2.70;99.90;;;;;;5112983;28;20165;-63
2022/04/18 04:31:12;;;;;;;7.57;4.60;;;2.70;99.90;;;;;;5113772;28;20192;-66
2022/04/18 04:33:37;;;;;;;5.33;4.80;;;2.70;99.90;;;;;;5114036;28;20426;-66
2022/04/18 04:36:03;;;;;;;6.27;4.33;;;2.70;99.90;;;;;;5113915;28;20569;-63
2022/04/18 04:38:29;;;;;;;7.40;3.87;;;2.70;99.90;;;;;;5113371;28;20586;-73
2022/04/18 04:40:56;;;;;;;4.50;3.83;;;2.70;99.90;;;;;;5113428;28;20446;-63
2022/04/18 04:43:25;;;;;;;6.20;5.60;;;2.70;99.90;;;;;;5113561;28;20194;-63
2022/04/18 04:45:51;;;;;;;5.73;3.93;;;2.80;99.90;;;;;;5113839;28;20410;-63
2022/04/18 04:48:16;;;;;;;6.30;4.80;;;2.80;99.90;;;;;;5113349;28;20416;-63
2022/04/18 04:50:42;;;;;;;4.57;3.57;;;2.80;99.90;;;;;;5112556;28;20178;-63
2022/04/18 04:53:08;;;;;;;5.47;4.93;;;2.80;99.90;;;;;;5113459;28;20238;-64
2022/04/18 04:55:36;;;;;;;6.93;5.40;;;2.90;99.90;;;;;;5113351;28;20538;-66
2022/04/18 04:58:02;;;;;;;4.77;4.30;;;2.90;99.90;;;;;;5113606;28;20428;-64
2022/04/18 05:00:27;;;;;;;8.53;4.73;;;2.90;99.90;;;;;;5111516;28;20475;-66
2022/04/18 05:02:56;;;;;;;4.03;3.70;;;2.90;99.90;;;;;;5112182;28;20193;-63
2022/04/18 05:05:22;;;;;;;6.97;4.70;;;3.00;99.90;;;;;;5113327;28;20204;-68
2022/04/18 05:07:47;;;;;;;6.27;4.87;;;3.00;99.90;;;;;;5113487;28;20901;-64
2022/04/18 05:10:13;;;;;;;5.13;4.30;;;3.00;99.90;;;;;;5112572;28;20192;-63
2022/04/18 05:12:39;;;;;;;4.67;4.27;;;3.00;99.90;;;;;;5113614;28;20586;-63
2022/04/18 05:15:06;;;;;;;8.00;4.43;;;3.00;99.90;;;;;;5113374;28;20454;-66
2022/04/18 05:17:31;;;;;;;5.90;4.60;;;3.10;99.90;;;;;;5113304;28;20171;-64
2022/04/18 05:19:58;;;;;;;4.27;3.67;;;3.10;99.90;;;;;;5112463;28;20395;-66
2022/04/18 05:22:24;;;;;;;4.47;4.10;;;3.20;99.90;;;;;;5113360;28;20563;-65
2022/04/18 05:24:50;;;;;;;4.70;4.30;;;3.20;99.90;;;;;;5113400;28;20402;-66
2022/04/18 05:27:16;;;;;;;5.00;4.50;;;3.30;99.90;;;;;;5113416;28;20244;-63
2022/04/18 05:29:42;;;;;;;5.50;5.00;;;3.40;99.90;;;;;;5112512;28;20402;-67
2022/04/18 05:32:08;;;;;;;4.73;4.30;;;3.40;99.90;;;;;;5112311;28;20431;-66
2022/04/18 05:34:34;;;;;;;8.23;4.80;;;3.50;99.90;;;;;;5112243;28;20461;-66
2022/04/18 05:36:59;;;;;;;7.17;5.33;;;3.50;99.90;;;;;;5112278;28;20928;-63
2022/04/18 05:39:26;;;;;;;5.63;4.80;;;3.60;99.90;;;;;;5112365;28;20611;-64
2022/04/18 05:41:51;;;;;;;6.40;5.43;;;3.70;99.90;;;;;;5113124;28;20186;-67
2022/04/18 05:44:17;;;;;;;9.03;5.13;;;3.80;99.90;;;;;;5113201;28;20412;-63
2022/04/18 05:46:42;;;;;;;7.97;5.57;;;3.90;99.90;;;;;;5113396;28;20184;-69
2022/04/18 05:49:08;;;;;;;5.50;4.90;;;4.00;99.90;;;;;;5111164;28;20171;-69
2022/04/18 05:51:36;;;;;;;8.37;5.63;;;4.10;99.90;;;;;;5113120;28;20656;-69
2022/04/18 05:54:03;;;;;;;7.43;5.70;;;4.20;99.90;;;;;;5112843;28;20403;-66
2022/04/18 05:56:29;;;;;;;7.00;5.67;;;4.30;99.90;;;;;;5113230;28;20167;-63
2022/04/18 05:58:55;;;;;;;13.07;7.83;;;4.50;99.90;;;;;;5111027;28;20441;-63
2022/04/18 06:01:21;;;;;;;7.33;6.63;;;4.70;99.90;;;;;;5113067;28;20490;-61
2022/04/18 06:03:47;;;;;;;7.57;5.70;;;4.80;99.90;;;;;;5116790;28;20944;-64
2022/04/18 06:06:13;;;;;;;10.03;6.43;;;5.00;99.90;;;;;;5116888;28;20271;-61
2022/04/18 06:08:39;;;;;;;9.00;8.10;;;5.20;99.90;;;;;;5115967;28;20426;-61
2022/04/18 06:11:05;;;;;;;10.17;7.90;;;5.40;99.90;;;;;;5116785;28;20837;-63
2022/04/18 06:13:30;;;;;;;9.90;6.70;;;5.50;99.90;;;;;;5116782;28;20423;-63
2022/04/18 06:15:56;;;;;;;12.67;7.90;;;5.70;99.90;;;;;;5116610;28;20205;-65
2022/04/18 06:18:22;;;;;;;12.30;7.30;;;5.90;99.90;;;;;;5116649;28;20623;-64
2022/04/18 06:20:47;;;;;;;9.70;7.43;;;6.10;99.90;;;;;;5115895;28;20244;-67
2022/04/18 06:23:16;;;;;;;6.63;5.80;;;6.20;99.90;;;;;;5115432;28;20718;-67
2022/04/18 06:25:42;;;;;;;8.90;7.60;;;6.40;99.90;;;;;;5116585;28;20195;-67
2022/04/18 06:28:08;;;;;;;9.83;7.47;;;6.60;99.90;;;;;;5116427;28;20442;-66
2022/04/18 06:30:34;;;;;;;9.70;6.47;;;6.80;99.90;;;;;;5115526;28;20445;-63
2022/04/18 06:33:00;;;;;;;10.17;6.77;;;6.90;99.90;;;;;;5116287;28;20463;-66
2022/04/18 06:35:25;;;;;;;10.30;6.83;;;7.10;99.90;;;;;;5116191;28;20193;-63
2022/04/18 06:37:51;;;;;;;11.20;6.70;;;7.30;99.90;;;;;;5116124;28;20169;-67
2022/04/18 06:40:17;;;;;;;14.13;9.57;;;7.40;99.90;;;;;;5115183;28;20166;-63
2022/04/18 06:42:42;;;;;;;13.77;7.17;;;7.60;99.90;;;;;;5115963;28;20193;-67
2022/04/18 06:45:08;;;;;;;8.53;6.67;;;7.70;99.90;;;;;;5116162;28;20311;-66
2022/04/18 06:47:34;;;;;;;7.87;7.07;;;7.80;99.90;;;;;;5116091;28;20177;-63
2022/04/18 06:50:00;;;;;;;7.93;6.67;;;7.90;99.90;;;;;;5115054;28;20870;-66
2022/04/18 06:52:25;;;;;;;11.83;7.57;;;8.00;99.90;;;;;;5115816;28;20209;-63
2022/04/18 06:54:51;;;;;;;10.30;7.17;;;8.20;99.90;;;;;;5115859;28;20198;-63
2022/04/18 06:57:17;;;;;;;8.23;7.40;;;8.30;99.90;;;;;;5115848;28;20168;-66
2022/04/18 06:59:42;;;;;;;10.90;7.80;;;8.40;99.90;;;;;;5115024;28;20174;-63
2022/04/18 07:02:08;;;;;;;8.87;6.70;;;8.60;99.90;;;;;;5115619;28;20187;-64
2022/04/18 07:04:34;;;;;;;8.70;7.20;;;8.70;99.90;;;;;;5115713;28;20556;-63
2022/04/18 07:07:00;;;;;;;8.23;6.40;;;8.80;99.90;;;;;;5114412;28;20773;-67
2022/04/18 07:09:26;;;;;;;10.47;6.07;;;9.00;99.90;;;;;;5114976;28;20380;-63
2022/04/18 07:11:52;;;;;;;8.47;6.37;;;9.10;99.90;;;;;;5115529;28;20263;-63
2022/04/18 07:14:18;;;;;;;11.33;7.00;;;9.20;99.90;;;;;;5114220;28;20190;-66
2022/04/18 07:16:44;;;;;;;14.43;6.70;;;9.30;99.90;;;;;;5115568;28;20286;-66
2022/04/18 07:19:10;;;;;;;7.73;6.53;;;9.40;99.90;;;;;;5114686;28;20414;-66
2022/04/18 07:21:36;;;;;;;8.77;6.07;;;9.60;99.90;;;;;;5115402;28;20425;-63
2022/04/18 07:24:03;;;;;;;7.70;6.90;;;9.60;99.90;;;;;;5115454;28;20548;-63
2022/04/18 07:26:29;;;;;;;12.17;6.30;;;9.70;99.90;;;;;;5115299;28;20176;-67
2022/04/18 07:28:55;;;;;;;10.67;7.40;;;9.80;99.90;;;;;;5114349;28;20407;-63
2022/04/18 07:31:20;;;;;;;6.23;5.63;;;9.90;99.90;;;;;;5115129;28;20414;-66
2022/04/18 07:33:46;;;;;;;8.80;6.37;;;10.10;99.90;;;;;;5114127;28;20414;-64
2022/04/18 07:36:12;;;;;;;8.53;7.00;;;10.20;99.90;;;;;;5115157;28;20239;-63
2022/04/18 07:38:50;;;;;;;9.97;7.50;;;10.40;99.90;;;;;;5114100;28;20171;-65
2022/04/18 07:41:26;;;;;;;10.70;7.43;;;10.50;99.90;;;;;;5115040;28;20164;-67
2022/04/18 07:43:53;;;;;;;9.20;7.27;;;10.50;99.90;;;;;;5114969;28;20407;-66
2022/04/18 07:46:19;;;;;;;7.60;6.60;;;10.50;99.90;;;;;;5114870;28;21017;-66
2022/04/18 07:48:47;;;;;;;9.73;6.60;;;10.60;99.90;;;;;;5113859;28;20456;-63
2022/04/18 07:51:32;;;;;;;13.70;8.30;;;10.70;99.90;;;;;;5114760;28;20388;-65
2022/04/18 07:53:58;;;;;;;12.13;6.67;;;10.80;99.90;;;;;;5114838;28;20867;-66
2022/04/18 07:56:24;;;;;;;13.43;6.73;;;10.90;99.90;;;;;;5114634;28;20603;-66
2022/04/18 07:58:50;;;;;;;7.53;6.10;;;11.00;99.90;;;;;;5113605;28;21171;-64
2022/04/18 08:01:17;;;;;;;8.30;7.27;;;11.10;99.90;;;;;;5113214;28;20781;-64
2022/04/18 08:03:43;;;;;;;11.23;6.60;;;11.20;99.90;;;;;;5114584;28;20370;-63
2022/04/18 08:06:08;;;;;;;11.03;7.17;;;11.30;99.90;;;;;;5114424;28;20466;-66
2022/04/18 08:08:34;;;;;;;11.17;6.77;;;11.40;99.90;;;;;;5113829;28;20742;-67
2022/04/18 08:11:00;;;;;;;11.20;7.10;;;11.50;99.90;;;;;;5114501;28;20169;-67
2022/04/18 08:13:26;;;;;;;9.37;5.83;;;11.50;99.90;;;;;;5114454;28;20192;-63
2022/04/18 08:15:53;;;;;;;10.07;6.43;;;11.70;99.90;;;;;;5114404;28;20812;-67
2022/04/18 08:18:19;;;;;;;7.80;6.07;;;11.80;99.90;;;;;;5114538;28;20377;-63
2022/04/18 08:20:45;;;;;;;9.43;5.50;;;11.90;99.90;;;;;;5113436;28;20377;-68
2022/04/18 08:23:10;;;;;;;5.43;4.00;;;12.00;99.90;;;;;;5114013;28;20401;-66
2022/04/18 08:25:36;;;;;;;7.10;5.10;;;12.10;99.90;;;;;;5113870;28;20184;-66
2022/04/18 08:28:02;;;;;;;7.53;5.07;;;12.30;99.90;;;;;;5112835;28;20587;-67
2022/04/18 08:30:27;;;;;;;12.10;6.77;;;12.30;99.70;;;;;;5113226;28;20184;-67
2022/04/18 08:32:54;;;;;;;7.33;5.10;;;12.40;95.40;;;;;;5114015;28;20330;-66
2022/04/18 08:35:19;;;;;;;7.60;5.87;;;12.40;92.90;;;;;;5114009;28;20279;-67
2022/04/18 08:37:46;;;;;;;9.60;5.37;;;12.50;92.90;;;;;;5114069;28;20515;-67
2022/04/18 08:40:11;;;;;;;8.80;5.90;;;12.50;92.90;;;;;;5111788;28;20651;-64
2022/04/18 08:42:39;;;;;;;10.27;5.37;;;12.60;93.00;;;;;;5112875;28;20517;-67
2022/04/18 08:45:13;;;;;;;9.47;5.67;;;12.70;93.00;;;;;;5112505;28;20183;-65
2022/04/18 08:53:11;;;;;;;8.37;4.97;;;13.30;93.20;;;;;;5113673;28;20931;-66
2022/04/18 08:55:37;;;;;;;10.73;5.90;;;13.50;93.30;;;;;;5113683;28;20813;-64
2022/04/18 08:58:07;;;;;;;7.87;5.00;;;13.80;93.40;;;;;;5113756;28;20453;-64
2022/04/18 09:00:33;;;;;;;8.33;5.13;;;14.00;93.50;;;;;;5112889;28;20398;-64
2022/04/18 09:02:59;;;;;;;7.17;4.90;;;14.10;93.50;;;;;;5113570;28;20501;-65
2022/04/18 09:05:25;;;;;;;9.20;6.13;;;14.20;93.60;;;;;;5113521;28;20180;-64
2022/04/18 09:08:02;;;;;;;9.03;5.00;;;14.30;93.50;;;;;;5114080;28;20369;-67
2022/04/18 09:10:28;;;;;;;7.73;5.80;;;14.30;82.40;;;;;;5112870;28;20418;-63
2022/04/18 09:13:05;;;;;;;7.77;5.53;;;14.30;79.70;;;;;;5113754;28;20406;-64
2022/04/18 09:15:35;;;;;;;9.57;6.27;;;14.40;81.90;;;;;;5113635;28;20424;-64
2022/04/18 09:18:21;;;;;;;9.40;6.20;;;14.50;79.60;;;;;;5113506;28;20908;-64
2022/04/18 09:20:50;;;;;;;8.10;5.37;;;14.80;76.70;;;;;;5111645;28;20405;-67
2022/04/18 09:23:23;;;;;;;7.20;4.70;;;15.10;76.40;;;;;;5113568;28;20418;-65
2022/04/18 09:25:55;;;;;;;12.57;6.10;;;15.30;75.50;;;;;;5113580;28;20467;-64
2022/04/18 09:28:40;;;;;;;8.33;4.90;;;15.60;73.10;;;;;;5113560;28;20402;-64
2022/04/18 09:31:08;;;;;;;7.93;4.93;;;15.90;67.30;;;;;;5113580;28;20414;-64
2022/04/18 09:33:44;;;;;;;9.13;5.20;;;16.20;64.60;;;;;;5113309;28;20434;-66
2022/04/18 09:36:12;;;;;;;7.20;4.37;;;16.60;57.30;;;;;;5113476;28;20595;-64
2022/04/18 09:38:48;;;;;;;6.20;4.03;;;16.80;52.90;;;;;;5116127;28;20403;-69
2022/04/18 09:41:15;;;;;;;4.57;3.80;;;17.00;46.10;;;;;;5117362;28;20909;-65
2022/04/18 09:43:44;;;;;;;8.93;4.90;;;17.20;40.20;;;;;;5115975;28;20429;-67
2022/04/18 09:46:13;;;;;;;6.53;5.33;;;17.60;45.20;;;;;;5117495;28;20407;-65
2022/04/18 09:48:43;;;;;;;9.40;6.07;;;17.90;46.20;;;;;;5116334;28;20434;-64
2022/04/18 09:51:14;;;;;;;8.17;5.90;;;18.20;46.00;;;;;;5117182;28;20436;-65
2022/04/18 09:53:46;;;;;;;9.23;4.97;;;18.60;41.70;;;;;;5117032;28;20395;-69
2022/04/18 09:56:16;;;;;;;8.63;4.90;;;18.90;34.00;;;;;;5116994;28;20454;-67
2022/04/18 10:02:20;;;;;;;8.10;5.30;;;19.40;36.20;;;;;;5034098;28;20545;-64
2022/04/18 10:04:46;;;;;;;5.73;4.60;;;19.40;29.70;;;;;;5034497;28;20421;-68
2022/04/18 10:07:16;;;;;;;9.70;5.00;;;19.50;26.00;;;;;;5106258;28;20463;-67
2022/04/18 10:09:43;;;;;;;14.53;5.77;;;19.60;26.40;;;;;;5115880;28;20391;-67
2022/04/18 10:12:11;;;;;;;6.63;5.13;;;19.70;29.90;;;;;;5116530;28;20413;-67
2022/04/18 10:14:38;;;;;;;9.13;5.40;;;19.90;26.50;;;;;;5116803;28;20438;-65
2022/04/18 10:17:07;;;;;;;8.37;6.10;;;20.20;24.70;;;;;;5116848;28;20400;-64
2022/04/18 10:20:00;;;;;;;11.90;4.87;;;19.80;25.00;;;;;;5115759;28;20403;-65
2022/04/18 10:22:31;;;;;;;8.17;5.10;;;20.20;23.00;;;;;;5116580;28;20495;-65
2022/04/18 10:25:25;;;;;;;8.87;5.50;;;20.40;21.20;;;;;;5116501;28;20399;-68
2022/04/18 10:28:16;;;;;;;9.57;5.43;;;20.30;17.40;;;;;;5116529;28;20444;-69
2022/04/18 10:31:01;;;;;;;8.37;5.47;;;20.70;17.50;;;;;;5115239;28;20407;-68
2022/04/18 10:33:27;;;;;;;9.83;5.70;;;20.90;13.60;;;;;;5099946;28;20809;-69
2022/04/18 10:35:55;;;;;;;8.90;5.70;;;20.80;11.80;;;;;;5095379;28;20495;-66
2022/04/18 10:38:37;;;;;;;7.70;5.03;;;20.80;14.70;;;;;;5095660;28;20424;-71
2022/04/18 10:41:37;;;;;;;6.00;5.10;;;21.30;15.00;;;;;;5094987;28;20427;-65
2022/04/18 10:43:58;;;;;;;7.97;5.20;;;21.30;8.30;;;;;;5092546;28;20392;-65
2022/04/18 10:46:24;;;;;;;8.20;5.00;;;21.40;8.70;;;;;;5095697;28;20402;-68
2022/04/18 10:48:59;;;;;;;8.47;5.27;;;21.30;10.60;;;;;;5093190;28;20414;-65
2022/04/18 10:51:28;;;;;;;8.00;5.40;;;21.40;8.40;;;;;;5095550;28;20398;-65
2022/04/18 10:54:17;;;;;;;9.27;4.87;;;21.80;8.20;;;;;;5095529;28;20470;-67
2022/04/18 10:57:05;;;;;;;6.73;5.00;;;22.00;9.50;;;;;;5095457;28;20415;-65
2022/04/18 10:59:38;;;;;;;8.17;4.50;;;22.10;6.40;;;;;;5094589;28;20458;-66
2022/04/18 11:02:06;;;;;;;9.40;6.03;;;22.70;7.30;;;;;;5094242;28;20459;-68
2022/04/18 11:04:39;;;;;;;7.93;5.63;;;22.60;6.20;;;;;;5095200;28;20502;-65
2022/04/18 11:07:07;;;;;;;7.90;4.50;;;22.60;2.00;;;;;;5093997;28;20399;-68
2022/04/18 11:09:41;;;;;;;7.13;5.17;;;22.70;4.30;;;;;;5094346;28;20894;-68
2022/04/18 11:12:15;;;;;;;8.43;5.10;;;22.60;1.00;;;;;;5094883;28;20510;-65
2022/04/18 11:14:48;;;;;;;12.00;6.23;;;22.60;1.00;;;;;;5095044;28;20458;-70
2022/04/18 11:17:36;;;;;;;11.97;5.77;;;22.80;1.70;;;;;;5095127;28;20431;-69
2022/04/18 11:20:24;;;;;;;5.80;3.83;;;23.00;1.00;;;;;;5094338;28;20432;-69
2022/04/18 11:23:18;;;;;;;9.47;4.63;;;23.30;1.00;;;;;;5095018;28;20415;-67
2022/04/18 11:25:50;;;;;;;5.60;4.90;;;23.60;1.00;;;;;;5093749;28;20411;-68
2022/04/18 11:28:17;;;;;;;8.20;4.47;;;23.60;1.00;;;;;;5093618;28;20412;-65
2022/04/18 11:30:43;;;;;;;6.93;4.50;;;23.60;1.00;;;;;;5093991;28;20411;-65
2022/04/18 11:33:09;;;;;;;9.03;4.27;;;23.30;1.00;;;;;;5094804;28;20759;-67
2022/04/18 11:35:34;;;;;;;7.50;4.60;;;23.30;1.00;;;;;;5093475;28;20205;-65
2022/04/18 11:38:07;;;;;;;11.43;5.70;;;23.30;1.00;;;;;;5094823;28;20248;-70
2022/04/18 11:40:37;;;;;;;6.70;4.87;;;23.30;1.00;;;;;;5093674;28;20193;-66
2022/04/18 11:43:11;;;;;;;8.53;4.77;;;23.50;1.00;;;;;;5094777;28;20419;-69
2022/04/18 11:45:37;;;;;;;8.13;5.27;;;22.80;1.00;;;;;;5094515;28;20399;-65
2022/04/18 11:48:04;;;;;;;11.87;5.43;;;22.10;1.00;;;;;;5094452;28;20400;-65
2022/04/18 11:50:31;;;;;;;10.13;5.73;;;22.90;1.00;;;;;;5093121;28;20986;-67
2022/04/18 11:53:03;;;;;;;8.63;5.10;;;23.60;1.00;;;;;;5094364;28;20447;-65
2022/04/18 11:55:29;;;;;;;8.23;5.80;;;23.20;1.00;;;;;;5094555;28;20457;-65
2022/04/18 11:57:55;;;;;;;6.83;3.57;;;23.20;1.00;;;;;;5094441;28;20465;-69
2022/04/18 12:08:42;;;;;;;8.93;4.80;;;24.50;1.00;;;;;;5093388;28;20494;-66
2022/04/18 12:11:08;;;;;;;8.53;4.50;;;24.60;1.00;;;;;;5094022;28;20536;-70
2022/04/18 12:13:42;;;;;;;6.77;4.60;;;24.70;1.00;;;;;;5092708;28;20522;-69
2022/04/18 12:16:09;;;;;;;9.87;4.93;;;24.70;1.00;;;;;;5094142;28;20196;-69
2022/04/18 12:18:34;;;;;;;9.70;5.13;;;24.70;1.00;;;;;;5093146;28;20886;-68
2022/04/18 12:21:00;;;;;;;8.87;6.30;;;24.50;1.00;;;;;;5092664;28;20456;-70
2022/04/18 12:23:27;;;;;;;8.17;4.87;;;24.30;1.00;;;;;;5093867;28;20276;-70
2022/04/18 12:25:56;;;;;;;7.77;5.00;;;23.80;1.00;;;;;;5093558;28;20419;-71
2022/04/18 12:28:28;;;;;;;9.23;4.67;;;23.00;1.00;;;;;;5093569;28;20959;-66
2022/04/18 12:30:55;;;;;;;8.43;5.60;;;22.00;1.00;;;;;;5092232;28;20417;-67
2022/04/18 12:33:30;;;;;;;10.87;5.00;;;21.70;1.00;;;;;;5092493;28;20195;-78
2022/04/18 12:36:00;;;;;;;7.90;4.53;;;21.20;1.00;;;;;;5092313;28;20540;-68
2022/04/18 12:38:53;;;;;;;7.20;4.90;;;20.70;1.00;;;;;;5092501;28;20403;-67
2022/04/18 12:41:33;;;;;;;36.50;5.90;;;20.50;1.00;;;;;;5093560;28;20430;-64
2022/04/18 12:44:00;;;;;;;8.10;4.55;;;20.40;1.00;;;;;;5092127;28;20434;-66
2022/04/18 12:46:29;;;;;;;4.33;3.37;;;20.60;1.00;;;;;;5093319;28;20173;-68
2022/04/18 12:48:56;;;;;;;5.30;3.60;;;20.60;1.00;;;;;;5092409;28;20404;-66
2022/04/18 12:51:31;;;;;;;7.30;3.63;;;20.50;1.00;;;;;;5093385;28;20541;-65
2022/04/18 12:53:58;;;;;;;7.23;3.50;;;20.40;1.00;;;;;;5093562;28;20804;-69
2022/04/18 12:56:26;;;;;;;5.10;3.63;;;20.20;1.00;;;;;;5093422;28;20787;-68
2022/04/18 12:58:54;;;;;;;3.60;2.47;;;20.50;1.00;;;;;;5092635;28;20869;-69
2022/04/18 13:01:35;;;;;;;4.30;2.80;;;21.90;1.00;;;;;;5092178;28;20494;-67
2022/04/18 13:04:05;;;;;;;3.43;2.23;;;23.50;1.00;;;;;;5093150;28;20403;-67
2022/04/18 13:06:33;;;;;;;3.90;2.50;;;24.60;1.00;;;;;;5093274;28;20404;-66
2022/04/18 13:09:09;;;;;;;3.90;2.60;;;25.40;1.00;;;;;;5092369;28;20882;-68
2022/04/18 13:11:43;;;;;;;4.20;2.63;;;25.90;1.00;;;;;;5095213;28;20823;-68
2022/04/18 13:14:14;;;;;;;2.93;2.13;;;26.50;1.00;;;;;;5097509;28;20410;-66
2022/04/18 13:16:45;;;;;;;5.30;2.90;;;26.60;1.00;;;;;;5097468;28;20489;-67
2022/04/18 13:19:13;;;;;;;11.40;3.70;;;26.60;1.00;;;;;;5096473;28;20448;-68
2022/04/18 13:21:40;;;;;;;7.57;4.60;;;26.70;1.00;;;;;;5097337;28;20438;-68
2022/04/18 13:24:07;;;;;;;12.30;7.60;;;25.80;1.00;;;;;;5097488;28;20948;-67
2022/04/18 13:26:33;;;;;;;12.50;10.33;;;24.30;1.00;;;;;;5097351;28;20410;-68